createdAt,value
2019-04-21T00:01:14.721Z,29.80
2019-04-21T00:03:50.186Z,29.30
2019-04-21T00:06:35.340Z,26.20
2019-04-21T00:09:09.372Z,26.12
2019-04-21T00:11:29.910Z,26.97
2019-04-21T00:13:52.591Z,25.75
2019-04-21T00:16:12.624Z,29.35
2019-04-21T00:18:50.627Z,27.67
2019-04-21T00:21:22.514Z,29.10
2019-04-21T00:23:59.072Z,26.65
2019-04-21T00:26:23.837Z,27.25
2019-04-21T00:29:02.019Z,30.27
2019-04-21T00:31:23.034Z,27.02
2019-04-21T00:33:37.040Z,26.75
2019-04-21T00:36:09.529Z,25.95
2019-04-21T00:39:03.138Z,26.10
2019-04-21T00:41:19.329Z,25.00
2019-04-21T00:43:42.620Z,23.67
2019-04-21T00:46:04.745Z,29.45
2019-04-21T00:48:41.166Z,27.35
2019-04-21T00:51:27.618Z,27.85
2019-04-21T00:53:51.589Z,29.52
2019-04-21T00:56:18.156Z,29.18
2019-04-21T00:58:40.613Z,30.37
2019-04-21T01:01:12.261Z,30.10
2019-04-21T01:03:41.727Z,27.50
2019-04-21T01:06:03.683Z,29.42
2019-04-21T01:08:35.723Z,26.20
2019-04-21T01:10:53.173Z,26.20
2019-04-21T01:13:39.461Z,30.40
2019-04-21T01:16:00.816Z,29.50
2019-04-21T01:18:29.519Z,28.75
2019-04-21T01:20:34.663Z,28.02
2019-04-21T01:23:02.189Z,28.38
2019-04-21T01:25:37.174Z,28.27
2019-04-21T01:28:16.728Z,28.27
2019-04-21T01:30:45.143Z,29.15
2019-04-21T01:33:17.353Z,29.63
2019-04-21T01:35:44.062Z,27.85
2019-04-21T01:38:14.252Z,30.00
2019-04-21T01:40:43.291Z,28.02
2019-04-21T01:43:14.844Z,28.73
2019-04-21T01:45:45.890Z,27.02
2019-04-21T01:48:13.414Z,32.05
2019-04-21T01:50:40.939Z,28.80
2019-04-21T01:53:18.775Z,28.67
2019-04-21T01:55:48.548Z,28.20
2019-04-21T01:58:11.736Z,29.55
2019-04-21T02:00:45.599Z,27.13
2019-04-21T02:03:34.513Z,28.87
2019-04-21T02:05:54.903Z,26.30
2019-04-21T02:08:11.020Z,29.10
2019-04-21T02:10:46.226Z,28.98
2019-04-21T02:13:09.097Z,30.95
2019-04-21T02:15:42.071Z,28.62
2019-04-21T02:18:08.957Z,30.02
2019-04-21T02:20:26.937Z,28.62
2019-04-21T02:23:31.460Z,26.50
2019-04-21T02:25:32.144Z,31.10
2019-04-21T02:28:03.305Z,28.75
2019-04-21T02:31:05.965Z,32.42
2019-04-21T02:33:16.953Z,27.48
2019-04-21T02:40:38.502Z,26.82
2019-04-21T02:43:11.335Z,26.30
2019-04-21T02:50:33.530Z,26.10
2019-04-21T02:53:06.391Z,27.37
2019-04-21T02:58:13.175Z,26.50
2019-04-21T03:03:03.918Z,25.37
2019-04-21T03:05:47.119Z,25.20
2019-04-21T03:08:03.816Z,25.88
2019-04-21T03:10:43.415Z,25.75
2019-04-21T03:13:03.628Z,25.32
2019-04-21T03:18:04.852Z,23.47
2019-04-21T03:20:35.337Z,22.27
2019-04-21T03:23:00.066Z,23.95
2019-04-21T03:30:45.031Z,21.35
2019-04-21T03:37:42.482Z,22.10
2019-04-21T03:40:15.409Z,21.15
2019-04-21T03:42:52.958Z,24.92
2019-04-21T03:45:12.714Z,24.35
2019-04-21T03:47:34.538Z,22.13
2019-04-21T03:52:45.565Z,21.37
2019-04-21T04:00:35.228Z,23.02
2019-04-21T04:02:54.624Z,21.97
2019-04-21T04:05:45.321Z,22.35
2019-04-21T04:08:31.529Z,19.75
2019-04-21T04:10:38.784Z,21.07
2019-04-21T04:12:54.692Z,20.30
2019-04-21T04:15:28.974Z,21.70
2019-04-21T04:17:41.170Z,18.62
2019-04-21T04:20:11.746Z,20.77
2019-04-21T04:25:15.456Z,18.92
2019-04-21T04:27:53.817Z,21.33
2019-04-21T04:30:19.369Z,19.48
2019-04-21T04:37:32.216Z,19.00
2019-04-21T04:42:39.323Z,16.35
2019-04-21T04:50:10.271Z,15.15
2019-04-21T04:52:32.576Z,17.92
2019-04-21T04:55:00.712Z,18.92
2019-04-21T05:00:01.681Z,19.75
2019-04-21T05:02:29.839Z,17.42
2019-04-21T05:09:50.149Z,16.75
2019-04-21T05:12:10.153Z,16.60
2019-04-21T05:14:48.271Z,16.87
2019-04-21T05:17:14.240Z,17.17
2019-04-21T05:19:51.867Z,14.43
2019-04-21T05:22:05.258Z,16.77
2019-04-21T05:24:24.058Z,14.70
2019-04-21T05:26:47.906Z,17.32
2019-04-21T05:29:15.878Z,16.87
2019-04-21T05:31:57.101Z,15.15
2019-04-21T05:34:26.012Z,14.80
2019-04-21T05:36:57.826Z,13.88
2019-04-21T05:39:37.551Z,13.88
2019-04-21T05:41:57.957Z,16.45
2019-04-21T05:44:44.484Z,15.25
2019-04-21T05:47:15.847Z,15.40
2019-04-21T05:49:42.084Z,16.93
2019-04-21T05:52:04.099Z,16.10
2019-04-21T05:54:44.358Z,15.38
2019-04-21T05:57:05.406Z,14.13
2019-04-21T05:59:41.710Z,14.40
2019-04-21T06:02:13.598Z,13.22
2019-04-21T06:04:51.808Z,13.58
2019-04-21T06:07:09.713Z,13.35
2019-04-21T06:09:37.225Z,12.53
2019-04-21T06:12:03.758Z,14.05
2019-04-21T06:14:29.436Z,11.25
2019-04-21T06:19:33.001Z,12.70
2019-04-21T06:21:55.729Z,12.53
2019-04-21T06:24:21.561Z,10.72
2019-04-21T06:27:00.343Z,11.70
2019-04-21T06:29:23.432Z,13.25
2019-04-21T06:32:12.706Z,11.40
2019-04-21T06:34:19.856Z,12.28
2019-04-21T06:39:28.305Z,11.03
2019-04-21T06:41:49.263Z,10.23
2019-04-21T06:44:16.735Z,12.80
2019-04-21T06:47:02.632Z,11.38
2019-04-21T06:49:19.009Z,10.30
2019-04-21T06:51:44.804Z,10.48
2019-04-21T06:54:30.627Z,10.80
2019-04-21T06:59:20.830Z,11.63
2019-04-21T07:01:42.247Z,15.80
2019-04-21T07:06:45.655Z,9.90
2019-04-21T07:11:25.315Z,12.07
2019-04-21T07:14:05.937Z,10.65
2019-04-21T07:16:37.160Z,10.98
2019-04-21T07:21:27.552Z,10.23
2019-04-21T07:24:00.555Z,9.83
2019-04-21T07:26:22.250Z,10.00
2019-04-21T07:28:59.763Z,10.43
2019-04-21T07:31:22.768Z,10.18
2019-04-21T07:36:21.640Z,11.88
2019-04-21T07:38:41.138Z,10.08
2019-04-21T07:41:08.250Z,9.18
2019-04-21T07:43:29.752Z,9.88
2019-04-21T07:45:58.160Z,9.38
2019-04-21T07:48:37.534Z,9.30
2019-04-21T07:51:09.567Z,9.10
2019-04-21T07:53:52.637Z,9.68
2019-04-21T07:55:53.709Z,8.13
2019-04-21T07:58:45.885Z,9.73
2019-04-21T08:01:16.679Z,9.43
2019-04-21T08:03:36.860Z,8.98
2019-04-21T08:06:02.365Z,8.50
2019-04-21T08:08:26.527Z,9.18
2019-04-21T08:10:57.080Z,11.20
2019-04-21T08:13:34.666Z,8.95
2019-04-21T08:15:58.255Z,8.48
2019-04-21T08:18:27.097Z,8.98
2019-04-21T08:20:54.443Z,7.75
2019-04-21T08:23:25.590Z,7.70
2019-04-21T08:26:00.633Z,10.55
2019-04-21T08:28:26.418Z,9.73
2019-04-21T08:30:52.280Z,10.00
2019-04-21T08:33:26.227Z,8.38
2019-04-21T08:38:13.563Z,10.98
2019-04-21T08:40:51.346Z,9.73
2019-04-21T08:43:10.927Z,8.73
2019-04-21T08:45:45.311Z,8.63
2019-04-21T08:48:10.574Z,9.30
2019-04-21T08:50:37.658Z,8.15
2019-04-21T08:53:07.086Z,9.48
2019-04-21T08:55:49.003Z,9.80
2019-04-21T08:58:36.993Z,9.73
2019-04-21T09:01:01.084Z,10.45
2019-04-21T09:03:33.428Z,9.85
2019-04-21T09:06:04.312Z,8.70
2019-04-21T09:08:36.308Z,8.78
2019-04-21T09:10:56.100Z,8.68
2019-04-21T09:13:25.132Z,9.25
2019-04-21T09:15:54.896Z,10.58
2019-04-21T09:18:41.909Z,9.18
2019-04-21T09:21:23.149Z,7.75
2019-04-21T09:23:40.554Z,9.38
2019-04-21T09:26:14.034Z,7.83
2019-04-21T09:28:34.911Z,7.58
2019-04-21T09:30:53.430Z,11.33
2019-04-21T09:33:16.844Z,8.75
2019-04-21T09:35:50.145Z,7.45
2019-04-21T09:38:23.608Z,15.23
2019-04-21T09:40:45.432Z,10.08
2019-04-21T09:43:11.550Z,15.25
2019-04-21T09:45:37.456Z,7.65
2019-04-21T09:48:09.956Z,8.38
2019-04-21T09:50:34.992Z,14.33
2019-04-21T09:53:12.575Z,8.15
2019-04-21T09:55:39.133Z,6.42
2019-04-21T09:58:10.054Z,8.38
2019-04-21T10:00:29.967Z,8.13
2019-04-21T10:03:00.930Z,5.70
2019-04-21T10:05:22.754Z,8.40
2019-04-21T10:07:49.082Z,7.30
2019-04-21T10:10:17.130Z,8.28
2019-04-21T10:12:43.611Z,7.20
2019-04-21T10:15:10.741Z,7.55
2019-04-21T10:17:41.974Z,7.67
2019-04-21T10:20:11.816Z,7.05
2019-04-21T10:22:39.329Z,10.32
2019-04-21T10:25:10.454Z,5.55
2019-04-21T10:27:37.444Z,7.22
2019-04-21T10:30:09.945Z,6.03
2019-04-21T10:32:36.582Z,9.75
2019-04-21T10:35:07.453Z,12.50
2019-04-21T10:37:45.467Z,11.15
2019-04-21T10:40:07.530Z,7.25
2019-04-21T10:42:35.365Z,8.70
2019-04-21T10:45:03.486Z,7.40
2019-04-21T10:47:31.204Z,5.37
2019-04-21T10:49:58.344Z,7.78
2019-04-21T10:52:43.303Z,5.85
2019-04-21T10:55:28.977Z,7.17
2019-04-21T10:57:40.270Z,6.92
2019-04-21T11:00:09.131Z,5.83
2019-04-21T11:02:41.123Z,5.95
2019-04-21T11:05:08.966Z,7.20
2019-04-21T11:07:55.361Z,5.45
2019-04-21T11:10:12.074Z,6.75
2019-04-21T11:12:39.731Z,11.60
2019-04-21T11:15:07.376Z,7.65
2019-04-21T11:17:34.183Z,6.50
2019-04-21T11:20:01.552Z,10.32
2019-04-21T11:22:28.523Z,5.97
2019-04-21T11:24:55.140Z,4.62
2019-04-21T11:27:22.607Z,6.17
2019-04-21T11:29:49.454Z,5.20
2019-04-21T11:32:16.832Z,7.45
2019-04-21T11:34:43.446Z,7.28
2019-04-21T11:37:12.408Z,4.55
2019-04-21T11:39:49.410Z,5.53
2019-04-21T11:42:09.960Z,5.83
2019-04-21T11:44:37.358Z,6.35
2019-04-21T11:47:06.634Z,6.28
2019-04-21T11:49:33.068Z,5.25
2019-04-21T11:52:00.694Z,5.90
2019-04-21T11:54:27.166Z,5.78
2019-04-21T11:56:54.805Z,5.20
2019-04-21T11:59:21.793Z,7.33
2019-04-21T12:01:49.680Z,6.83
2019-04-21T12:04:16.245Z,5.30
2019-04-21T12:06:46.671Z,5.92
2019-04-21T12:09:11.813Z,4.70
2019-04-21T12:11:39.029Z,4.97
2019-04-21T12:14:05.954Z,6.47
2019-04-21T12:16:33.121Z,4.47
2019-04-21T12:19:00.935Z,7.15
2019-04-21T12:21:31.162Z,4.58
2019-04-21T12:23:56.621Z,3.70
2019-04-21T12:26:24.187Z,3.85
2019-04-21T12:28:51.962Z,4.78
2019-04-21T12:31:23.541Z,3.92
2019-04-21T12:33:51.993Z,3.85
2019-04-21T12:36:19.814Z,6.00
2019-04-21T12:38:50.959Z,6.75
2019-04-21T12:41:14.962Z,4.42
2019-04-21T12:43:42.454Z,5.70
2019-04-21T12:46:09.695Z,5.15
2019-04-21T12:48:36.096Z,3.75
2019-04-21T12:51:03.905Z,3.25
2019-04-21T12:53:31.794Z,3.92
2019-04-21T12:55:59.912Z,4.55
2019-04-21T12:58:26.465Z,3.77
2019-04-21T13:00:53.146Z,4.87
2019-04-21T13:03:23.104Z,4.37
2019-04-21T13:05:49.575Z,4.22
2019-04-21T13:08:15.961Z,3.58
2019-04-21T13:13:19.823Z,4.50
2019-04-21T13:15:47.328Z,4.53
2019-04-21T13:18:14.373Z,3.77
2019-04-21T13:20:42.169Z,3.72
2019-04-21T13:23:10.174Z,3.80
2019-04-21T13:25:38.079Z,3.60
2019-04-21T13:28:05.001Z,4.42
2019-04-21T13:30:32.594Z,6.10
2019-04-21T13:33:00.741Z,4.70
2019-04-21T13:35:28.956Z,3.47
2019-04-21T13:37:56.318Z,4.05
2019-04-21T13:40:53.027Z,3.67
2019-04-21T13:43:07.889Z,3.42
2019-04-21T13:45:34.281Z,3.37
2019-04-21T13:48:02.373Z,4.10
2019-04-21T13:50:29.099Z,4.65
2019-04-21T13:52:56.641Z,3.00
2019-04-21T13:55:25.392Z,3.22
2019-04-21T13:57:52.817Z,3.27
2019-04-21T14:00:21.294Z,4.37
2019-04-21T14:02:48.977Z,4.25
2019-04-21T14:05:15.953Z,4.65
2019-04-21T14:07:43.903Z,3.27
2019-04-21T14:10:12.333Z,4.40
2019-04-21T14:12:38.673Z,6.00
2019-04-21T14:15:06.434Z,2.92
2019-04-21T14:17:35.035Z,3.45
2019-04-21T14:20:03.506Z,2.70
2019-04-21T14:22:29.820Z,3.17
2019-04-21T14:24:56.327Z,5.00
2019-04-21T14:27:23.912Z,4.62
2019-04-21T14:29:51.385Z,3.15
2019-04-21T14:32:18.242Z,4.05
2019-04-21T14:34:47.163Z,3.55
2019-04-21T14:37:13.110Z,5.20
2019-04-21T14:39:51.758Z,5.60
2019-04-21T14:42:08.451Z,3.85
2019-04-21T14:44:34.931Z,4.95
2019-04-21T14:47:09.258Z,5.35
2019-04-21T14:49:41.558Z,4.42
2019-04-21T14:52:19.141Z,4.42
2019-04-21T14:54:54.448Z,3.70
2019-04-21T14:57:21.270Z,4.33
2019-04-21T14:59:48.969Z,3.47
2019-04-21T15:02:16.054Z,5.42
2019-04-21T15:04:43.850Z,4.08
2019-04-21T15:07:10.357Z,3.87
2019-04-21T15:09:37.675Z,8.35
2019-04-21T15:12:05.720Z,5.58
2019-04-21T15:14:33.737Z,3.35
2019-04-21T15:17:01.015Z,5.25
2019-04-21T15:19:28.655Z,3.40
2019-04-21T15:21:56.578Z,3.02
2019-04-21T15:24:24.327Z,4.95
2019-04-21T15:26:52.899Z,7.25
2019-04-21T15:29:18.871Z,5.35
2019-04-21T15:31:46.494Z,7.25
2019-04-21T15:34:13.208Z,8.63
2019-04-21T15:36:40.115Z,13.40
2019-04-21T15:39:07.803Z,7.25
2019-04-21T15:41:36.609Z,4.87
2019-04-21T15:44:04.748Z,4.10
2019-04-21T15:46:33.882Z,5.55
2019-04-21T15:49:00.559Z,4.08
2019-04-21T15:51:28.070Z,4.10
2019-04-21T15:53:57.570Z,3.58
2019-04-21T15:56:26.856Z,4.83
2019-04-21T15:59:14.610Z,5.50
2019-04-21T16:01:46.410Z,4.25
2019-04-21T16:04:14.623Z,3.90
2019-04-21T16:06:41.556Z,3.75
2019-04-21T16:09:14.189Z,5.70
2019-04-21T16:11:37.877Z,3.60
2019-04-21T16:14:05.781Z,4.28
2019-04-21T16:16:34.087Z,4.10
2019-04-21T16:19:00.601Z,3.80
2019-04-21T16:21:26.937Z,3.30
2019-04-21T16:23:54.149Z,4.78
2019-04-21T16:26:20.519Z,5.10
2019-04-21T16:28:46.953Z,4.08
2019-04-21T16:31:14.251Z,3.27
2019-04-21T16:33:43.150Z,4.25
2019-04-21T16:36:12.906Z,5.03
2019-04-21T16:38:39.633Z,4.20
2019-04-21T16:41:10.066Z,3.45
2019-04-21T16:43:35.417Z,4.80
2019-04-21T16:46:01.735Z,4.70
2019-04-21T16:48:28.171Z,3.70
2019-04-21T16:50:55.382Z,4.67
2019-04-21T16:53:26.360Z,4.45
2019-04-21T16:56:00.725Z,5.28
2019-04-21T16:58:41.032Z,3.50
2019-04-21T17:01:15.932Z,4.17
2019-04-21T17:03:40.599Z,5.65
2019-04-21T17:06:07.085Z,5.85
2019-04-21T17:08:33.877Z,6.10
2019-04-21T17:11:10.920Z,4.95
2019-04-21T17:13:29.647Z,9.28
2019-04-21T17:16:16.913Z,6.47
2019-04-21T17:18:40.615Z,5.95
2019-04-21T17:20:57.646Z,3.83
2019-04-21T17:23:21.744Z,8.23
2019-04-21T17:25:48.425Z,7.47
2019-04-21T17:28:15.480Z,7.75
2019-04-21T17:30:42.237Z,7.28
2019-04-21T17:33:11.210Z,8.78
2019-04-21T17:35:38.536Z,10.88
2019-04-21T17:38:05.905Z,8.70
2019-04-21T17:40:33.716Z,10.45
2019-04-21T17:43:05.490Z,9.50
2019-04-21T17:45:29.013Z,7.97
2019-04-21T17:48:02.371Z,9.40
2019-04-21T17:50:25.835Z,9.43
2019-04-21T17:53:00.906Z,8.93
2019-04-21T17:55:31.344Z,8.53
2019-04-21T17:58:12.191Z,11.25
2019-04-21T18:01:10.166Z,13.13
2019-04-21T18:03:40.405Z,15.63
2019-04-21T18:05:50.530Z,14.75
2019-04-21T18:08:27.830Z,12.03
2019-04-21T18:10:47.754Z,8.38
2019-04-21T18:13:08.790Z,10.78
2019-04-21T18:15:51.063Z,11.38
2019-04-21T18:17:58.820Z,9.45
2019-04-21T18:20:28.058Z,10.63
2019-04-21T18:22:57.247Z,11.35
2019-04-21T18:25:39.831Z,11.22
2019-04-21T18:27:56.413Z,10.30
2019-04-21T18:30:36.002Z,9.90
2019-04-21T18:33:05.848Z,9.13
2019-04-21T18:35:51.752Z,11.97
2019-04-21T18:38:26.068Z,8.63
2019-04-21T18:40:53.948Z,9.00
2019-04-21T18:43:56.736Z,12.40
2019-04-21T18:46:14.981Z,14.00
2019-04-21T18:48:31.549Z,11.93
2019-04-21T18:50:58.965Z,11.35
2019-04-21T18:53:44.780Z,7.70
2019-04-21T18:56:05.539Z,11.20
2019-04-21T18:58:28.675Z,9.60
2019-04-21T19:01:03.231Z,11.10
2019-04-21T19:03:28.179Z,12.00
2019-04-21T19:05:58.263Z,8.58
2019-04-21T19:08:44.748Z,9.03
2019-04-21T19:11:08.261Z,9.08
2019-04-21T19:13:47.842Z,10.55
2019-04-21T19:21:02.809Z,9.03
2019-04-21T19:23:41.029Z,11.12
2019-04-21T19:26:10.414Z,9.80
2019-04-21T19:28:36.175Z,12.43
2019-04-21T19:31:04.996Z,12.07
2019-04-21T19:33:18.772Z,8.93
2019-04-21T19:35:35.394Z,10.53
2019-04-21T19:38:07.055Z,10.45
2019-04-21T19:40:48.733Z,12.33
2019-04-21T19:43:09.462Z,11.57
2019-04-21T19:45:36.811Z,10.90
2019-04-21T19:48:14.998Z,9.90
2019-04-21T19:50:44.904Z,9.38
2019-04-21T19:53:03.072Z,9.85
2019-04-21T19:55:24.307Z,8.88
2019-04-21T19:57:50.774Z,9.10
2019-04-21T20:00:17.839Z,11.60
2019-04-21T20:02:45.715Z,10.55
2019-04-21T20:05:20.430Z,8.70
2019-04-21T20:08:02.947Z,8.33
2019-04-21T20:10:26.945Z,11.43
2019-04-21T20:12:56.651Z,9.48
2019-04-21T20:15:33.001Z,8.45
2019-04-21T20:17:50.190Z,11.68
2019-04-21T20:20:06.748Z,10.30
2019-04-21T20:22:38.397Z,13.43
2019-04-21T20:25:07.913Z,8.83
2019-04-21T20:27:38.862Z,10.30
2019-04-21T20:30:14.022Z,8.98
2019-04-21T20:32:45.368Z,9.03
2019-04-21T20:35:14.943Z,8.60
2019-04-21T20:37:40.687Z,9.83
2019-04-21T20:39:58.919Z,7.62
2019-04-21T20:42:27.901Z,8.15
2019-04-21T20:45:22.081Z,9.20
2019-04-21T20:47:25.620Z,8.73
2019-04-21T20:49:59.472Z,9.43
2019-04-21T20:52:35.556Z,8.25
2019-04-21T20:54:55.076Z,9.05
2019-04-21T20:57:25.640Z,10.03
2019-04-21T20:59:54.093Z,11.18
2019-04-21T21:02:26.439Z,11.60
2019-04-21T21:04:43.486Z,11.22
2019-04-21T21:07:34.607Z,9.95
2019-04-21T21:09:55.873Z,9.98
2019-04-21T21:14:43.270Z,8.35
2019-04-21T21:17:26.569Z,10.80
2019-04-21T21:19:49.011Z,10.85
2019-04-21T21:22:04.086Z,9.20
2019-04-21T21:24:41.838Z,9.40
2019-04-21T21:27:05.490Z,10.00
2019-04-21T21:29:35.439Z,8.78
2019-04-21T21:32:11.182Z,8.70
2019-04-21T21:34:34.507Z,8.35
2019-04-21T21:37:01.894Z,8.33
2019-04-21T21:39:36.327Z,11.97
2019-04-21T21:41:46.401Z,10.85
2019-04-21T21:44:14.431Z,9.38
2019-04-21T21:46:49.927Z,8.80
2019-04-21T21:49:24.746Z,9.53
2019-04-21T21:51:43.025Z,8.70
2019-04-21T21:54:03.064Z,8.43
2019-04-21T21:56:30.658Z,9.10
2019-04-21T21:58:57.184Z,9.08
2019-04-21T22:01:33.259Z,7.67
2019-04-21T22:04:01.689Z,7.80
2019-04-21T22:06:23.915Z,9.10
2019-04-21T22:08:50.312Z,9.25
2019-04-21T22:11:17.984Z,8.03
2019-04-21T22:13:54.363Z,11.43
2019-04-21T22:16:15.694Z,10.82
2019-04-21T22:19:04.700Z,9.20
2019-04-21T22:21:27.953Z,9.70
2019-04-21T22:23:49.030Z,10.60
2019-04-21T22:26:07.183Z,9.80
2019-04-21T22:28:33.891Z,8.50
2019-04-21T22:31:01.073Z,9.83
2019-04-21T22:33:31.243Z,9.78
2019-04-21T22:36:03.759Z,10.63
2019-04-21T22:38:38.117Z,8.73
2019-04-21T22:41:09.315Z,9.45
2019-04-21T22:43:28.483Z,9.48
2019-04-21T22:45:49.494Z,8.80
2019-04-21T22:48:20.985Z,9.88
2019-04-21T22:50:44.565Z,11.03
2019-04-21T22:53:15.480Z,9.78
2019-04-21T22:56:10.893Z,10.43
2019-04-21T22:58:34.042Z,8.33
2019-04-21T23:01:01.514Z,8.05
2019-04-21T23:03:27.018Z,9.53
2019-04-21T23:05:55.796Z,9.68
2019-04-21T23:08:26.451Z,9.18
2019-04-21T23:10:59.254Z,7.85
2019-04-21T23:13:23.151Z,7.00
2019-04-21T23:15:51.781Z,7.72
2019-04-21T23:18:31.916Z,7.55
2019-04-21T23:20:59.188Z,7.55
2019-04-21T23:23:35.813Z,7.35
2019-04-21T23:25:54.345Z,7.95
2019-04-21T23:28:22.191Z,9.13
2019-04-21T23:30:55.849Z,7.15
2019-04-21T23:33:07.019Z,6.92
2019-04-21T23:35:36.753Z,8.08
2019-04-21T23:38:04.738Z,7.85
2019-04-21T23:40:30.803Z,7.37
2019-04-21T23:43:00.046Z,7.22
2019-04-21T23:45:30.535Z,6.42
2019-04-21T23:48:08.101Z,6.50
2019-04-21T23:50:33.252Z,7.40
2019-04-21T23:52:49.804Z,6.78
2019-04-21T23:55:17.045Z,6.35
2019-04-21T23:57:48.047Z,6.92
